createdAt,value
2022-11-03T00:01:52.459Z,5.84
2022-11-03T00:04:37.991Z,5.69
2022-11-03T00:07:23.408Z,5.66
2022-11-03T00:10:09.021Z,5.66
2022-11-03T00:12:54.772Z,5.69
2022-11-03T00:15:48.301Z,5.69
2022-11-03T00:18:34.634Z,5.63
2022-11-03T00:21:22.450Z,5.53
2022-11-03T00:24:07.954Z,5.42
2022-11-03T00:26:53.553Z,5.32
2022-11-03T00:29:38.972Z,5.22
2022-11-03T00:32:24.500Z,5.03
2022-11-03T00:35:10.100Z,5.13
2022-11-03T00:37:55.718Z,5.24
2022-11-03T00:40:41.041Z,5.29
2022-11-03T00:43:27.649Z,5.22
2022-11-03T00:46:13.888Z,5.21
2022-11-03T00:48:59.391Z,5.21
2022-11-03T00:51:44.857Z,5.23
2022-11-03T00:54:30.084Z,5.28
2022-11-03T00:57:15.458Z,5.35
2022-11-03T01:00:00.817Z,5.43
2022-11-03T01:02:46.383Z,5.40
2022-11-03T01:05:50.295Z,5.37
2022-11-03T01:08:36.681Z,5.34
2022-11-03T01:11:43.287Z,5.35
2022-11-03T01:14:33.510Z,5.33
2022-11-03T01:17:24.879Z,5.30
2022-11-03T01:20:10.922Z,5.17
2022-11-03T01:22:56.162Z,5.15
2022-11-03T01:25:41.573Z,5.11
2022-11-03T01:28:26.880Z,5.04
2022-11-03T01:31:18.792Z,4.99
2022-11-03T01:34:04.003Z,5.02
2022-11-03T01:36:49.509Z,5.07
2022-11-03T01:39:35.087Z,5.14
2022-11-03T01:42:20.455Z,5.22
2022-11-03T01:45:06.298Z,5.21
2022-11-03T01:47:51.635Z,5.24
2022-11-03T01:50:37.739Z,5.10
2022-11-03T01:53:23.795Z,5.00
2022-11-03T01:56:10.682Z,4.94
2022-11-03T01:58:56.195Z,4.84
2022-11-03T02:01:43.223Z,4.89
2022-11-03T02:04:33.824Z,4.76
2022-11-03T02:07:32.158Z,4.70
2022-11-03T02:10:18.267Z,4.54
2022-11-03T02:13:12.711Z,4.48
2022-11-03T02:15:59.796Z,4.38
2022-11-03T02:18:47.219Z,4.28
2022-11-03T02:21:49.020Z,4.19
2022-11-03T02:24:53.823Z,4.08
2022-11-03T02:27:40.928Z,4.02
2022-11-03T02:30:38.835Z,3.89
2022-11-03T02:33:45.497Z,3.86
2022-11-03T02:36:33.085Z,3.77
2022-11-03T02:39:29.078Z,3.71
2022-11-03T02:42:17.887Z,3.65
2022-11-03T02:45:11.914Z,3.58
2022-11-03T02:48:03.224Z,3.60
2022-11-03T02:50:49.376Z,3.56
2022-11-03T02:53:42.654Z,3.57
2022-11-03T02:56:32.529Z,3.52
2022-11-03T02:59:27.807Z,3.47
2022-11-03T03:02:19.941Z,3.42
2022-11-03T03:05:10.433Z,3.46
2022-11-03T03:08:02.129Z,3.38
2022-11-03T03:10:49.019Z,3.42
2022-11-03T03:13:34.351Z,3.41
2022-11-03T03:16:32.571Z,3.41
2022-11-03T03:19:39.468Z,3.63
2022-11-03T03:22:32.229Z,3.86
2022-11-03T03:25:38.792Z,3.86
2022-11-03T03:28:31.469Z,3.94
2022-11-03T03:31:19.876Z,3.92
2022-11-03T03:34:23.739Z,3.76
2022-11-03T03:37:16.162Z,3.73
2022-11-03T03:40:05.563Z,3.64
2022-11-03T03:42:52.233Z,3.68
2022-11-03T03:45:38.753Z,3.62
2022-11-03T03:48:24.497Z,3.73
2022-11-03T03:51:12.823Z,3.78
2022-11-03T03:53:58.519Z,3.70
2022-11-03T03:56:49.127Z,3.83
2022-11-03T03:59:34.839Z,3.84
2022-11-03T04:02:20.423Z,3.77
2022-11-03T04:05:06.284Z,3.64
2022-11-03T04:07:52.032Z,3.68
2022-11-03T04:10:37.657Z,3.59
2022-11-03T04:13:41.420Z,3.59
2022-11-03T04:16:45.665Z,3.51
2022-11-03T04:19:49.786Z,3.53
2022-11-03T04:22:35.254Z,3.44
2022-11-03T04:25:20.670Z,3.32
2022-11-03T04:28:12.785Z,3.25
2022-11-03T04:31:01.695Z,3.22
2022-11-03T04:33:48.345Z,3.04
2022-11-03T04:36:34.063Z,2.91
2022-11-03T04:39:20.798Z,2.85
2022-11-03T04:42:35.802Z,2.74
2022-11-03T04:45:28.784Z,2.55
2022-11-03T04:48:19.827Z,2.46
2022-11-03T04:51:20.178Z,2.36
2022-11-03T04:54:23.585Z,2.23
2022-11-03T04:57:13.200Z,2.22
2022-11-03T04:59:58.900Z,2.18
2022-11-03T05:02:49.055Z,2.19
2022-11-03T05:05:37.437Z,2.22
2022-11-03T05:08:24.393Z,2.23
2022-11-03T05:11:21.272Z,2.29
2022-11-03T05:14:22.219Z,2.38
2022-11-03T05:17:22.223Z,2.37
2022-11-03T05:20:34.656Z,2.23
2022-11-03T05:23:22.995Z,2.08
2022-11-03T05:26:18.359Z,2.11
2022-11-03T05:29:13.474Z,2.01
2022-11-03T05:31:59.038Z,1.86
2022-11-03T05:34:48.242Z,1.81
2022-11-03T05:37:35.660Z,1.72
2022-11-03T05:40:26.137Z,1.69
2022-11-03T05:43:14.799Z,1.79
2022-11-03T05:46:03.326Z,1.84
2022-11-03T05:48:49.609Z,1.79
2022-11-03T05:51:41.988Z,1.72
2022-11-03T05:54:32.099Z,1.64
2022-11-03T05:57:18.395Z,1.58
2022-11-03T06:00:05.275Z,1.54
2022-11-03T06:02:59.073Z,1.54
2022-11-03T06:05:44.571Z,1.67
2022-11-03T06:08:39.032Z,1.70
2022-11-03T06:11:31.613Z,1.63
2022-11-03T06:14:24.661Z,1.58
2022-11-03T06:17:21.625Z,1.72
2022-11-03T06:20:15.193Z,1.85
2022-11-03T06:23:00.995Z,1.74
2022-11-03T06:25:46.977Z,1.69
2022-11-03T06:28:39.297Z,1.61
2022-11-03T06:31:28.170Z,1.49
2022-11-03T06:34:34.723Z,1.21
2022-11-03T06:37:34.957Z,1.24
2022-11-03T06:40:20.162Z,1.24
2022-11-03T06:43:22.845Z,1.23
2022-11-03T06:46:34.506Z,1.24
2022-11-03T06:49:23.050Z,1.28
2022-11-03T06:52:26.105Z,1.34
2022-11-03T06:55:13.987Z,1.30
2022-11-03T06:58:12.535Z,1.30
2022-11-03T07:01:03.473Z,1.35
2022-11-03T07:03:52.604Z,1.44
2022-11-03T07:06:38.154Z,1.69
2022-11-03T07:09:27.892Z,1.86
2022-11-03T07:12:18.624Z,1.97
2022-11-03T07:15:11.257Z,2.04
2022-11-03T07:17:57.666Z,2.21
2022-11-03T07:20:43.289Z,2.30
2022-11-03T07:23:31.001Z,2.32
2022-11-03T07:26:16.776Z,2.29
2022-11-03T07:29:02.496Z,2.31
2022-11-03T07:31:49.624Z,2.28
2022-11-03T07:34:35.303Z,2.21
2022-11-03T07:37:24.445Z,2.10
2022-11-03T07:40:23.631Z,2.13
2022-11-03T07:43:28.293Z,2.07
2022-11-03T07:46:19.822Z,2.00
2022-11-03T07:49:09.118Z,2.00
2022-11-03T07:51:57.530Z,1.91
2022-11-03T07:54:43.473Z,1.85
2022-11-03T07:57:30.736Z,1.88
2022-11-03T08:00:22.812Z,1.91
2022-11-03T08:03:41.359Z,1.75
2022-11-03T08:06:27.305Z,1.70
2022-11-03T08:09:12.895Z,1.73
2022-11-03T08:11:58.504Z,1.67
2022-11-03T08:14:44.168Z,1.68
2022-11-03T08:17:29.998Z,1.72
2022-11-03T08:20:15.561Z,1.76
2022-11-03T08:26:06.696Z,2.00
2022-11-03T08:28:52.392Z,2.15
2022-11-03T08:31:38.231Z,2.30
2022-11-03T08:34:23.697Z,2.33
2022-11-03T08:37:09.032Z,2.32
2022-11-03T08:39:54.467Z,2.42
2022-11-03T08:42:39.985Z,2.58
2022-11-03T08:45:25.602Z,2.67
2022-11-03T08:48:10.914Z,2.82
2022-11-03T08:50:56.718Z,2.92
2022-11-03T08:53:43.163Z,3.08
2022-11-03T08:56:28.743Z,3.32
2022-11-03T08:59:14.516Z,3.52
2022-11-03T09:01:59.933Z,3.70
2022-11-03T09:04:45.367Z,3.93
2022-11-03T09:10:38.416Z,4.21
2022-11-03T09:13:28.096Z,4.35
2022-11-03T09:16:13.748Z,4.48
2022-11-03T09:18:59.277Z,4.64
2022-11-03T09:21:44.565Z,4.74
2022-11-03T09:24:30.991Z,4.83
2022-11-03T09:27:16.299Z,5.07
2022-11-03T09:30:16.964Z,5.27
2022-11-03T09:33:02.336Z,5.48
2022-11-03T09:35:47.528Z,5.66
2022-11-03T09:38:33.090Z,5.80
2022-11-03T09:41:26.229Z,5.85
2022-11-03T09:44:13.862Z,5.96
2022-11-03T09:46:59.985Z,6.03
2022-11-03T09:49:45.719Z,6.09
2022-11-03T09:52:32.137Z,6.15
2022-11-03T09:55:26.321Z,6.28
2022-11-03T09:58:17.490Z,6.32
2022-11-03T10:01:03.191Z,6.44
2022-11-03T10:03:48.725Z,6.55
2022-11-03T10:06:34.050Z,6.65
2022-11-03T10:09:20.844Z,6.70
2022-11-03T10:12:09.332Z,6.79
2022-11-03T10:14:55.524Z,6.91
2022-11-03T10:17:42.079Z,7.02
2022-11-03T10:20:29.336Z,7.16
2022-11-03T10:23:14.903Z,7.30
2022-11-03T10:26:10.097Z,7.43
2022-11-03T10:29:04.244Z,7.53
2022-11-03T10:31:52.495Z,7.59
2022-11-03T10:34:39.597Z,7.59
2022-11-03T10:37:26.876Z,7.65
2022-11-03T10:40:51.981Z,7.76
2022-11-03T10:43:39.822Z,7.86
2022-11-03T10:49:39.205Z,8.07
2022-11-03T10:52:30.081Z,8.15
2022-11-03T10:55:19.178Z,8.22
2022-11-03T10:58:08.060Z,8.32
2022-11-03T11:00:54.012Z,8.46
2022-11-03T11:03:44.868Z,8.55
2022-11-03T11:06:31.365Z,8.55
2022-11-03T11:09:28.146Z,8.62
2022-11-03T11:12:25.084Z,8.67
2022-11-03T11:15:44.667Z,8.81
2022-11-03T11:18:30.155Z,8.89
2022-11-03T11:21:15.812Z,8.91
2022-11-03T11:24:01.433Z,8.94
2022-11-03T11:26:48.176Z,8.98
2022-11-03T11:29:36.064Z,9.06
2022-11-03T11:32:39.666Z,9.11
2022-11-03T11:35:27.888Z,9.10
2022-11-03T11:38:45.508Z,9.16
2022-11-03T11:42:09.942Z,9.33
2022-11-03T11:45:00.204Z,9.60
2022-11-03T11:47:48.336Z,9.83
2022-11-03T11:50:34.313Z,10.05
2022-11-03T11:53:26.276Z,10.17
2022-11-03T11:56:16.867Z,10.26
2022-11-03T11:59:02.968Z,10.21
2022-11-03T12:01:53.653Z,10.17
2022-11-03T12:04:39.094Z,10.15
2022-11-03T12:07:35.416Z,10.24
2022-11-03T12:10:26.277Z,10.29
2022-11-03T12:13:52.579Z,10.35
2022-11-03T12:16:38.300Z,10.37
2022-11-03T12:19:46.691Z,10.41
2022-11-03T12:22:40.238Z,10.40
2022-11-03T12:25:37.201Z,10.46
2022-11-03T12:28:36.468Z,10.41
2022-11-03T12:31:21.932Z,10.40
2022-11-03T12:34:07.490Z,10.39
2022-11-03T12:36:56.160Z,10.36
2022-11-03T12:39:42.147Z,10.30
2022-11-03T12:42:27.472Z,10.24
2022-11-03T12:45:13.810Z,10.23
2022-11-03T12:47:59.968Z,10.20
2022-11-03T12:50:45.474Z,10.06
2022-11-03T12:53:30.997Z,10.05
2022-11-03T12:56:18.194Z,10.05
2022-11-03T12:59:03.771Z,10.11
2022-11-03T13:01:49.286Z,10.12
2022-11-03T13:04:34.964Z,10.08
2022-11-03T13:07:25.765Z,10.07
2022-11-03T13:10:13.132Z,10.17
2022-11-03T13:12:58.872Z,10.20
2022-11-03T13:15:44.320Z,10.27
2022-11-03T13:18:29.717Z,10.33
2022-11-03T13:21:14.949Z,10.45
2022-11-03T13:24:00.341Z,10.56
2022-11-03T13:26:45.796Z,10.64
2022-11-03T13:29:35.369Z,10.70
2022-11-03T13:32:21.421Z,10.75
2022-11-03T13:35:12.424Z,10.82
2022-11-03T13:37:59.003Z,10.83
2022-11-03T13:41:05.238Z,10.84
2022-11-03T13:43:49.809Z,10.83
2022-11-03T13:46:35.388Z,10.83
2022-11-03T13:49:59.352Z,10.79
2022-11-03T13:52:28.647Z,10.70
2022-11-03T14:01:24.936Z,10.49
2022-11-03T14:07:16.146Z,10.34
2022-11-03T14:10:03.862Z,10.30
2022-11-03T14:12:50.122Z,10.28
2022-11-03T14:15:35.904Z,10.25
2022-11-03T14:18:21.469Z,10.24
2022-11-03T14:21:06.823Z,10.14
2022-11-03T14:23:52.678Z,10.06
2022-11-03T14:26:42.542Z,10.05
2022-11-03T14:29:28.737Z,9.98
2022-11-03T14:32:14.203Z,9.93
2022-11-03T14:34:59.853Z,9.93
2022-11-03T14:37:45.437Z,9.94
2022-11-03T14:40:49.324Z,9.93
2022-11-03T14:43:35.339Z,9.96
2022-11-03T14:46:20.977Z,9.95
2022-11-03T14:49:06.712Z,9.98
2022-11-03T14:51:52.105Z,10.02
2022-11-03T14:54:37.705Z,9.95
2022-11-03T14:57:23.217Z,9.97
2022-11-03T15:00:11.302Z,9.91
2022-11-03T15:02:56.901Z,9.86
2022-11-03T15:05:45.761Z,9.83
2022-11-03T15:08:32.477Z,9.79
2022-11-03T15:11:18.251Z,9.79
2022-11-03T15:14:04.044Z,9.77
2022-11-03T15:16:49.623Z,9.69
2022-11-03T15:19:34.913Z,9.70
2022-11-03T15:22:20.445Z,9.70
2022-11-03T15:27:55.014Z,9.69
2022-11-03T15:30:40.406Z,9.67
2022-11-03T15:33:26.347Z,9.66
2022-11-03T15:36:12.394Z,9.63
2022-11-03T15:38:58.342Z,9.58
2022-11-03T15:41:44.055Z,9.50
2022-11-03T15:44:30.085Z,9.46
2022-11-03T15:47:15.763Z,9.34
2022-11-03T15:50:01.775Z,9.27
2022-11-03T15:52:47.467Z,9.14
2022-11-03T15:55:32.824Z,9.03
2022-11-03T15:58:18.634Z,8.98
2022-11-03T16:01:05.225Z,8.88
2022-11-03T16:03:51.228Z,8.79
2022-11-03T16:07:06.313Z,8.71
2022-11-03T16:09:42.665Z,8.62
2022-11-03T16:12:28.065Z,8.55
2022-11-03T16:15:13.516Z,8.52
2022-11-03T16:18:02.910Z,8.48
2022-11-03T16:20:48.528Z,8.42
2022-11-03T16:23:33.857Z,8.44
2022-11-03T16:26:24.264Z,8.41
2022-11-03T16:29:09.661Z,8.43
2022-11-03T16:31:55.134Z,8.45
2022-11-03T16:34:40.626Z,8.45
2022-11-03T16:37:29.323Z,8.43
2022-11-03T16:40:19.128Z,8.37
2022-11-03T16:43:05.180Z,8.31
2022-11-03T16:45:50.677Z,8.27
2022-11-03T16:48:36.360Z,8.21
2022-11-03T16:51:22.393Z,8.19
2022-11-03T16:54:07.662Z,8.15
2022-11-03T16:56:54.812Z,8.11
2022-11-03T16:59:40.549Z,8.07
2022-11-03T17:02:28.561Z,8.00
2022-11-03T17:05:16.745Z,7.92
2022-11-03T17:08:02.372Z,7.87
2022-11-03T17:10:47.910Z,7.81
2022-11-03T17:13:33.445Z,7.77
2022-11-03T17:16:19.009Z,7.69
2022-11-03T17:19:04.803Z,7.64
2022-11-03T17:21:50.586Z,7.68
2022-11-03T17:24:36.087Z,7.87
2022-11-03T17:27:38.323Z,8.05
2022-11-03T17:30:28.394Z,8.10
2022-11-03T17:33:17.523Z,8.07
2022-11-03T17:36:02.903Z,8.00
2022-11-03T17:38:48.606Z,7.98
2022-11-03T17:41:36.802Z,8.01
2022-11-03T17:44:22.185Z,7.98
2022-11-03T17:47:08.028Z,7.95
2022-11-03T17:49:53.414Z,7.93
2022-11-03T17:52:39.034Z,7.96
2022-11-03T17:55:30.494Z,7.95
2022-11-03T17:58:16.630Z,7.94
2022-11-03T18:01:02.610Z,7.97
2022-11-03T18:03:48.176Z,7.94
2022-11-03T18:06:34.041Z,7.94
2022-11-03T18:09:19.596Z,7.95
2022-11-03T18:12:23.698Z,7.93
2022-11-03T18:15:19.792Z,7.95
2022-11-03T18:18:15.818Z,7.93
2022-11-03T18:21:01.987Z,7.95
2022-11-03T18:23:47.820Z,7.96
2022-11-03T18:26:33.043Z,7.98
2022-11-03T18:29:18.596Z,8.06
2022-11-03T18:32:03.958Z,8.07
2022-11-03T18:34:49.633Z,8.16
2022-11-03T18:37:35.928Z,8.10
2022-11-03T18:40:21.649Z,8.01
2022-11-03T18:43:13.711Z,8.02
2022-11-03T18:45:59.298Z,7.95
2022-11-03T18:48:44.685Z,7.92
2022-11-03T18:51:30.051Z,7.95
2022-11-03T18:57:12.265Z,7.94
2022-11-03T18:59:58.121Z,8.02
2022-11-03T19:02:43.700Z,8.09
2022-11-03T19:05:29.923Z,7.93
2022-11-03T19:08:21.077Z,7.80
2022-11-03T19:11:06.742Z,7.81
2022-11-03T19:13:52.628Z,7.78
2022-11-03T19:16:45.830Z,7.77
2022-11-03T19:19:41.416Z,7.81
2022-11-03T19:22:27.280Z,7.78
2022-11-03T19:25:14.681Z,7.81
2022-11-03T19:28:00.029Z,7.76
2022-11-03T19:30:45.667Z,7.72
2022-11-03T19:33:31.575Z,7.62
2022-11-03T19:36:18.379Z,7.53
2022-11-03T19:39:05.247Z,7.41
2022-11-03T19:42:10.749Z,7.30
2022-11-03T19:44:58.782Z,7.20
2022-11-03T19:48:23.191Z,7.12
2022-11-03T19:51:07.686Z,7.05
2022-11-03T19:53:53.412Z,6.97
2022-11-03T19:56:39.415Z,6.91
2022-11-03T19:59:26.377Z,6.84
2022-11-03T20:02:13.611Z,6.78
2022-11-03T20:04:59.835Z,6.73
2022-11-03T20:07:46.889Z,6.66
2022-11-03T20:10:36.014Z,6.60
2022-11-03T20:13:29.247Z,6.58
2022-11-03T20:16:17.314Z,6.58
2022-11-03T20:19:03.452Z,6.62
2022-11-03T20:21:49.155Z,6.61
2022-11-03T20:24:34.792Z,6.60
2022-11-03T20:27:21.652Z,6.54
2022-11-03T20:30:13.114Z,6.50
2022-11-03T20:32:58.695Z,6.45
2022-11-03T20:35:46.217Z,6.45
2022-11-03T20:38:33.372Z,6.41
2022-11-03T20:41:19.069Z,6.37
2022-11-03T20:44:04.820Z,6.34
2022-11-03T20:46:50.415Z,6.31
2022-11-03T20:49:36.120Z,6.23
2022-11-03T20:52:21.946Z,6.14
2022-11-03T20:55:23.429Z,6.15
2022-11-03T20:58:15.938Z,6.10
2022-11-03T21:01:02.034Z,6.06
2022-11-03T21:04:03.095Z,6.02
2022-11-03T21:06:48.742Z,5.95
2022-11-03T21:09:34.548Z,5.92
2022-11-03T21:12:20.114Z,5.85
2022-11-03T21:15:52.255Z,5.77
2022-11-03T21:19:01.784Z,5.76
2022-11-03T21:21:47.666Z,5.77
2022-11-03T21:24:33.488Z,5.72
2022-11-03T21:27:19.268Z,5.67
2022-11-03T21:30:05.863Z,5.60
2022-11-03T21:32:51.881Z,5.61
2022-11-03T21:35:38.698Z,5.69
2022-11-03T21:38:24.370Z,5.66
2022-11-03T21:41:28.646Z,5.59
2022-11-03T21:44:17.592Z,5.54
2022-11-03T21:47:03.559Z,5.55
2022-11-03T21:49:49.655Z,5.48
2022-11-03T21:52:35.656Z,5.46
2022-11-03T21:55:21.623Z,5.42
2022-11-03T21:58:07.875Z,5.39
2022-11-03T22:00:53.833Z,5.32
2022-11-03T22:03:39.592Z,5.33
2022-11-03T22:06:25.819Z,5.31
2022-11-03T22:09:11.321Z,5.29
2022-11-03T22:11:56.837Z,5.23
2022-11-03T22:15:01.234Z,5.21
2022-11-03T22:17:46.994Z,5.16
2022-11-03T22:20:51.279Z,5.12
2022-11-03T22:24:14.964Z,5.10
2022-11-03T22:27:00.708Z,5.07
2022-11-03T22:30:04.958Z,5.00
2022-11-03T22:32:55.594Z,4.95
2022-11-03T22:35:59.792Z,4.90
2022-11-03T22:39:03.923Z,4.83
2022-11-03T22:42:08.125Z,4.85
2022-11-03T22:45:12.043Z,4.79
2022-11-03T22:47:57.867Z,4.79
2022-11-03T22:50:44.474Z,4.73
2022-11-03T22:53:50.083Z,4.72
2022-11-03T22:56:35.600Z,4.70
2022-11-03T22:59:21.077Z,4.74
2022-11-03T23:02:06.763Z,4.69
2022-11-03T23:04:52.257Z,4.73
2022-11-03T23:07:41.264Z,4.68
2022-11-03T23:10:28.549Z,4.66
2022-11-03T23:13:13.759Z,4.72
2022-11-03T23:15:59.152Z,4.74
2022-11-03T23:19:03.483Z,4.76
2022-11-03T23:21:50.705Z,4.79
2022-11-03T23:24:54.838Z,4.85
2022-11-03T23:27:40.522Z,4.76
2022-11-03T23:30:25.699Z,4.74
2022-11-03T23:33:11.309Z,4.64
2022-11-03T23:35:56.987Z,4.62
2022-11-03T23:38:42.941Z,4.58
2022-11-03T23:41:29.273Z,4.62
2022-11-03T23:44:16.271Z,4.65
2022-11-03T23:47:20.547Z,4.64
2022-11-03T23:50:06.625Z,4.60
2022-11-03T23:52:51.912Z,4.62
2022-11-03T23:55:57.154Z,4.69
2022-11-03T23:58:42.779Z,4.64
